sensor_id;sensor_type;location;lat;lon;timestamp;pressure;altitude;pressure_sealevel;temperature;humidity
79690;BME280;69156;55.932;-3.238;2023-08-06T00:01:07;100876.25;;;14.38;71.58
79690;BME280;69156;55.932;-3.238;2023-08-06T00:03:33;100872.82;;;14.22;71.46
79690;BME280;69156;55.932;-3.238;2023-08-06T00:05:59;100874.17;;;14.32;71.31
79690;BME280;69156;55.932;-3.238;2023-08-06T00:08:24;100874.85;;;14.41;71.20
79690;BME280;69156;55.932;-3.238;2023-08-06T00:10:50;100876.32;;;14.38;71.46
79690;BME280;69156;55.932;-3.238;2023-08-06T00:13:16;100875.06;;;14.31;71.45
79690;BME280;69156;55.932;-3.238;2023-08-06T00:15:41;100872.97;;;14.31;71.11
79690;BME280;69156;55.932;-3.238;2023-08-06T00:18:06;100877.19;;;14.27;71.35
79690;BME280;69156;55.932;-3.238;2023-08-06T00:20:32;100877.84;;;14.20;71.46
79690;BME280;69156;55.932;-3.238;2023-08-06T00:22:58;100880.98;;;14.34;71.58
79690;BME280;69156;55.932;-3.238;2023-08-06T00:25:24;100879.53;;;14.32;71.57
79690;BME280;69156;55.932;-3.238;2023-08-06T00:27:49;100883.38;;;14.30;71.85
79690;BME280;69156;55.932;-3.238;2023-08-06T00:30:14;100885.27;;;14.25;71.86
79690;BME280;69156;55.932;-3.238;2023-08-06T00:32:41;100885.28;;;14.24;71.98
79690;BME280;69156;55.932;-3.238;2023-08-06T00:35:07;100886.05;;;14.29;71.86
79690;BME280;69156;55.932;-3.238;2023-08-06T00:37:31;100886.21;;;14.28;71.85
79690;BME280;69156;55.932;-3.238;2023-08-06T00:39:57;100885.32;;;14.26;71.86
79690;BME280;69156;55.932;-3.238;2023-08-06T00:42:22;100884.33;;;14.26;71.80
79690;BME280;69156;55.932;-3.238;2023-08-06T00:44:48;100890.94;;;14.18;71.68
79690;BME280;69156;55.932;-3.238;2023-08-06T00:47:14;100889.98;;;14.26;71.78
79690;BME280;69156;55.932;-3.238;2023-08-06T00:49:39;100891.37;;;14.26;71.88
79690;BME280;69156;55.932;-3.238;2023-08-06T00:52:07;100890.06;;;14.19;71.71
79690;BME280;69156;55.932;-3.238;2023-08-06T00:54:31;100890.01;;;14.15;71.46
79690;BME280;69156;55.932;-3.238;2023-08-06T00:56:56;100889.10;;;14.25;71.38
79690;BME280;69156;55.932;-3.238;2023-08-06T00:59:21;100893.06;;;14.20;71.51
79690;BME280;69156;55.932;-3.238;2023-08-06T01:01:46;100891.54;;;14.21;71.30
79690;BME280;69156;55.932;-3.238;2023-08-06T01:04:13;100890.35;;;14.25;71.12
79690;BME280;69156;55.932;-3.238;2023-08-06T01:06:40;100892.35;;;14.28;71.13
79690;BME280;69156;55.932;-3.238;2023-08-06T01:09:14;100893.51;;;14.18;71.30
79690;BME280;69156;55.932;-3.238;2023-08-06T01:11:37;100893.04;;;14.25;71.16
79690;BME280;69156;55.932;-3.238;2023-08-06T01:13:59;100892.56;;;14.25;71.12
79690;BME280;69156;55.932;-3.238;2023-08-06T01:16:21;100897.01;;;14.22;71.00
79690;BME280;69156;55.932;-3.238;2023-08-06T01:18:44;100896.88;;;14.22;70.92
79690;BME280;69156;55.932;-3.238;2023-08-06T01:21:10;100896.60;;;14.21;70.81
79690;BME280;69156;55.932;-3.238;2023-08-06T01:23:35;100899.12;;;14.13;70.81
79690;BME280;69156;55.932;-3.238;2023-08-06T01:26:11;100899.46;;;14.13;70.95
79690;BME280;69156;55.932;-3.238;2023-08-06T01:28:33;100900.31;;;14.12;71.19
79690;BME280;69156;55.932;-3.238;2023-08-06T01:30:54;100902.59;;;14.12;71.33
79690;BME280;69156;55.932;-3.238;2023-08-06T01:33:21;100902.18;;;14.18;71.20
79690;BME280;69156;55.932;-3.238;2023-08-06T01:35:43;100903.80;;;14.19;71.01
79690;BME280;69156;55.932;-3.238;2023-08-06T01:38:08;100908.15;;;14.15;71.14
79690;BME280;69156;55.932;-3.238;2023-08-06T01:40:34;100909.10;;;14.04;71.33
79690;BME280;69156;55.932;-3.238;2023-08-06T01:43:00;100913.83;;;14.09;71.43
79690;BME280;69156;55.932;-3.238;2023-08-06T01:45:25;100910.90;;;14.00;71.56
79690;BME280;69156;55.932;-3.238;2023-08-06T01:47:50;100911.88;;;13.98;71.65
79690;BME280;69156;55.932;-3.238;2023-08-06T01:50:16;100911.87;;;13.98;71.63
79690;BME280;69156;55.932;-3.238;2023-08-06T01:52:42;100913.79;;;13.98;71.65
79690;BME280;69156;55.932;-3.238;2023-08-06T01:55:07;100917.23;;;13.97;71.72
79690;BME280;69156;55.932;-3.238;2023-08-06T01:57:33;100916.20;;;13.98;71.56
79690;BME280;69156;55.932;-3.238;2023-08-06T01:59:59;100916.75;;;14.08;71.64
79690;BME280;69156;55.932;-3.238;2023-08-06T02:02:24;100913.47;;;13.85;71.62
79690;BME280;69156;55.932;-3.238;2023-08-06T02:04:50;100914.00;;;13.87;71.78
79690;BME280;69156;55.932;-3.238;2023-08-06T02:07:16;100918.98;;;14.11;71.68
79690;BME280;69156;55.932;-3.238;2023-08-06T02:09:42;100921.66;;;13.99;71.63
79690;BME280;69156;55.932;-3.238;2023-08-06T02:12:07;100922.53;;;13.90;71.71
79690;BME280;69156;55.932;-3.238;2023-08-06T02:14:33;100925.25;;;13.91;71.68
79690;BME280;69156;55.932;-3.238;2023-08-06T02:16:58;100927.22;;;13.93;71.70
79690;BME280;69156;55.932;-3.238;2023-08-06T02:19:23;100926.66;;;13.99;71.67
79690;BME280;69156;55.932;-3.238;2023-08-06T02:21:49;100925.81;;;13.98;71.59
79690;BME280;69156;55.932;-3.238;2023-08-06T02:24:15;100922.65;;;14.01;71.67
79690;BME280;69156;55.932;-3.238;2023-08-06T02:26:41;100923.00;;;13.93;71.72
79690;BME280;69156;55.932;-3.238;2023-08-06T02:29:07;100920.25;;;14.07;71.55
79690;BME280;69156;55.932;-3.238;2023-08-06T02:31:32;100922.64;;;14.02;71.67
79690;BME280;69156;55.932;-3.238;2023-08-06T02:33:58;100922.16;;;13.98;71.64
79690;BME280;69156;55.932;-3.238;2023-08-06T02:36:23;100922.04;;;14.09;71.58
79690;BME280;69156;55.932;-3.238;2023-08-06T02:38:49;100921.94;;;14.06;71.34
79690;BME280;69156;55.932;-3.238;2023-08-06T02:41:14;100920.63;;;13.99;71.35
79690;BME280;69156;55.932;-3.238;2023-08-06T02:43:40;100918.97;;;13.82;71.60
79690;BME280;69156;55.932;-3.238;2023-08-06T02:46:06;100918.26;;;14.09;71.72
79690;BME280;69156;55.932;-3.238;2023-08-06T02:48:32;100920.36;;;13.95;71.76
79690;BME280;69156;55.932;-3.238;2023-08-06T02:50:58;100922.05;;;13.98;71.78
79690;BME280;69156;55.932;-3.238;2023-08-06T02:53:23;100924.91;;;14.06;71.64
79690;BME280;69156;55.932;-3.238;2023-08-06T02:55:49;100924.56;;;14.03;71.62
79690;BME280;69156;55.932;-3.238;2023-08-06T02:58:15;100923.08;;;13.94;71.74
79690;BME280;69156;55.932;-3.238;2023-08-06T03:00:41;100923.78;;;14.07;71.51
79690;BME280;69156;55.932;-3.238;2023-08-06T03:03:06;100927.44;;;14.11;71.35
79690;BME280;69156;55.932;-3.238;2023-08-06T03:05:31;100927.26;;;14.03;71.63
79690;BME280;69156;55.932;-3.238;2023-08-06T03:07:57;100929.00;;;14.07;71.72
79690;BME280;69156;55.932;-3.238;2023-08-06T03:10:22;100930.23;;;14.15;71.64
79690;BME280;69156;55.932;-3.238;2023-08-06T03:12:48;100930.21;;;14.07;71.53
79690;BME280;69156;55.932;-3.238;2023-08-06T03:15:14;100931.32;;;13.95;71.71
79690;BME280;69156;55.932;-3.238;2023-08-06T03:17:39;100931.34;;;13.97;71.84
79690;BME280;69156;55.932;-3.238;2023-08-06T03:20:05;100929.39;;;13.90;71.98
79690;BME280;69156;55.932;-3.238;2023-08-06T03:22:30;100929.36;;;13.98;72.02
79690;BME280;69156;55.932;-3.238;2023-08-06T03:24:55;100926.15;;;13.88;72.07
79690;BME280;69156;55.932;-3.238;2023-08-06T03:27:21;100925.75;;;13.94;72.08
79690;BME280;69156;55.932;-3.238;2023-08-06T03:29:49;100923.45;;;14.00;71.94
79690;BME280;69156;55.932;-3.238;2023-08-06T03:32:12;100921.48;;;13.87;72.04
79690;BME280;69156;55.932;-3.238;2023-08-06T03:34:37;100922.90;;;13.81;72.09
79690;BME280;69156;55.932;-3.238;2023-08-06T03:37:03;100923.61;;;13.92;72.05
79690;BME280;69156;55.932;-3.238;2023-08-06T03:39:28;100923.68;;;13.89;72.13
79690;BME280;69156;55.932;-3.238;2023-08-06T03:41:54;100925.02;;;13.85;72.15
79690;BME280;69156;55.932;-3.238;2023-08-06T03:44:19;100927.22;;;13.84;72.15
79690;BME280;69156;55.932;-3.238;2023-08-06T03:46:45;100931.24;;;13.90;72.21
79690;BME280;69156;55.932;-3.238;2023-08-06T03:49:11;100931.05;;;13.86;72.25
79690;BME280;69156;55.932;-3.238;2023-08-06T03:51:36;100929.47;;;13.78;72.22
79690;BME280;69156;55.932;-3.238;2023-08-06T03:54:01;100932.40;;;13.77;72.34
79690;BME280;69156;55.932;-3.238;2023-08-06T03:56:27;100932.32;;;13.64;72.43
79690;BME280;69156;55.932;-3.238;2023-08-06T03:58:52;100934.87;;;13.68;72.54
79690;BME280;69156;55.932;-3.238;2023-08-06T04:01:20;100934.91;;;13.78;72.39
79690;BME280;69156;55.932;-3.238;2023-08-06T04:03:47;100933.41;;;13.65;72.03
79690;BME280;69156;55.932;-3.238;2023-08-06T04:06:12;100935.66;;;13.71;71.45
79690;BME280;69156;55.932;-3.238;2023-08-06T04:08:38;100935.13;;;13.78;71.06
79690;BME280;69156;55.932;-3.238;2023-08-06T04:11:05;100934.43;;;13.65;70.81
79690;BME280;69156;55.932;-3.238;2023-08-06T04:13:29;100933.53;;;13.67;70.52
79690;BME280;69156;55.932;-3.238;2023-08-06T04:15:54;100934.05;;;13.71;70.58
79690;BME280;69156;55.932;-3.238;2023-08-06T04:18:22;100939.25;;;13.70;70.43
79690;BME280;69156;55.932;-3.238;2023-08-06T04:20:49;100942.56;;;13.72;70.24
79690;BME280;69156;55.932;-3.238;2023-08-06T04:23:14;100943.85;;;13.62;70.35
79690;BME280;69156;55.932;-3.238;2023-08-06T04:25:40;100944.74;;;13.72;70.34
79690;BME280;69156;55.932;-3.238;2023-08-06T04:28:07;100947.10;;;13.87;69.98
79690;BME280;69156;55.932;-3.238;2023-08-06T04:30:31;100949.10;;;13.76;69.81
79690;BME280;69156;55.932;-3.238;2023-08-06T04:32:59;100951.02;;;13.79;69.77
79690;BME280;69156;55.932;-3.238;2023-08-06T04:35:23;100952.47;;;13.74;69.62
79690;BME280;69156;55.932;-3.238;2023-08-06T04:37:49;100955.38;;;13.71;69.61
79690;BME280;69156;55.932;-3.238;2023-08-06T04:40:17;100957.30;;;13.77;69.64
79690;BME280;69156;55.932;-3.238;2023-08-06T04:42:44;100958.71;;;13.71;69.63
79690;BME280;69156;55.932;-3.238;2023-08-06T04:45:09;100960.64;;;13.70;69.70
79690;BME280;69156;55.932;-3.238;2023-08-06T04:47:35;100959.72;;;13.74;69.42
79690;BME280;69156;55.932;-3.238;2023-08-06T04:49:59;100956.03;;;13.66;69.46
79690;BME280;69156;55.932;-3.238;2023-08-06T04:52:26;100960.18;;;13.68;69.52
79690;BME280;69156;55.932;-3.238;2023-08-06T04:54:52;100958.85;;;13.69;69.70
79690;BME280;69156;55.932;-3.238;2023-08-06T04:57:18;100955.22;;;13.71;69.70
79690;BME280;69156;55.932;-3.238;2023-08-06T04:59:44;100956.89;;;13.77;69.45
79690;BME280;69156;55.932;-3.238;2023-08-06T05:02:08;100959.69;;;13.72;69.54
79690;BME280;69156;55.932;-3.238;2023-08-06T05:04:35;100959.11;;;13.68;69.46
79690;BME280;69156;55.932;-3.238;2023-08-06T05:07:02;100960.25;;;13.71;69.29
79690;BME280;69156;55.932;-3.238;2023-08-06T05:09:28;100962.48;;;13.61;69.17
79690;BME280;69156;55.932;-3.238;2023-08-06T05:11:53;100965.57;;;13.80;69.16
79690;BME280;69156;55.932;-3.238;2023-08-06T05:14:18;100965.34;;;13.75;69.29
79690;BME280;69156;55.932;-3.238;2023-08-06T05:16:45;100968.46;;;13.81;69.16
79690;BME280;69156;55.932;-3.238;2023-08-06T05:19:11;100964.57;;;13.82;68.80
79690;BME280;69156;55.932;-3.238;2023-08-06T05:21:38;100961.72;;;13.76;69.02
79690;BME280;69156;55.932;-3.238;2023-08-06T05:24:02;100963.84;;;13.63;68.99
79690;BME280;69156;55.932;-3.238;2023-08-06T05:26:28;100963.10;;;13.78;69.09
79690;BME280;69156;55.932;-3.238;2023-08-06T05:28:54;100966.64;;;13.80;69.04
79690;BME280;69156;55.932;-3.238;2023-08-06T05:31:19;100969.74;;;13.79;68.71
79690;BME280;69156;55.932;-3.238;2023-08-06T05:33:46;100971.47;;;13.82;68.31
79690;BME280;69156;55.932;-3.238;2023-08-06T05:36:11;100972.51;;;13.86;68.03
79690;BME280;69156;55.932;-3.238;2023-08-06T05:38:35;100975.87;;;13.93;68.12
79690;BME280;69156;55.932;-3.238;2023-08-06T05:41:01;100976.14;;;13.79;68.05
79690;BME280;69156;55.932;-3.238;2023-08-06T05:43:27;100980.90;;;13.80;68.28
79690;BME280;69156;55.932;-3.238;2023-08-06T05:45:53;100982.99;;;13.86;68.19
79690;BME280;69156;55.932;-3.238;2023-08-06T05:48:20;100982.93;;;13.87;68.13
79690;BME280;69156;55.932;-3.238;2023-08-06T05:50:45;100984.79;;;13.66;68.19
79690;BME280;69156;55.932;-3.238;2023-08-06T05:53:12;100985.55;;;13.71;67.99
79690;BME280;69156;55.932;-3.238;2023-08-06T05:55:38;100987.43;;;13.75;68.22
79690;BME280;69156;55.932;-3.238;2023-08-06T05:58:03;100985.18;;;13.88;67.90
79690;BME280;69156;55.932;-3.238;2023-08-06T06:00:28;100985.19;;;13.95;67.41
79690;BME280;69156;55.932;-3.238;2023-08-06T06:02:54;100991.92;;;13.91;67.49
79690;BME280;69156;55.932;-3.238;2023-08-06T06:05:20;100990.12;;;14.06;67.23
79690;BME280;69156;55.932;-3.238;2023-08-06T06:07:45;100994.26;;;14.06;67.42
79690;BME280;69156;55.932;-3.238;2023-08-06T06:10:12;100999.43;;;13.93;67.23
79690;BME280;69156;55.932;-3.238;2023-08-06T06:12:39;101001.43;;;14.10;67.09
79690;BME280;69156;55.932;-3.238;2023-08-06T06:15:06;101001.53;;;13.91;66.94
79690;BME280;69156;55.932;-3.238;2023-08-06T06:17:31;101004.32;;;13.97;66.70
79690;BME280;69156;55.932;-3.238;2023-08-06T06:19:57;101006.67;;;13.87;66.43
79690;BME280;69156;55.932;-3.238;2023-08-06T06:22:24;101005.76;;;13.88;66.21
79690;BME280;69156;55.932;-3.238;2023-08-06T06:24:49;101007.97;;;14.21;65.54
79690;BME280;69156;55.932;-3.238;2023-08-06T06:27:15;101011.72;;;14.00;65.46
79690;BME280;69156;55.932;-3.238;2023-08-06T06:29:41;101014.52;;;14.28;65.16
79690;BME280;69156;55.932;-3.238;2023-08-06T06:32:05;101017.32;;;14.14;64.99
79690;BME280;69156;55.932;-3.238;2023-08-06T06:34:32;101019.07;;;14.32;65.16
79690;BME280;69156;55.932;-3.238;2023-08-06T06:36:58;101020.14;;;14.37;65.13
79690;BME280;69156;55.932;-3.238;2023-08-06T06:39:24;101018.05;;;14.12;65.51
79690;BME280;69156;55.932;-3.238;2023-08-06T06:41:51;101020.85;;;14.38;65.43
79690;BME280;69156;55.932;-3.238;2023-08-06T06:44:18;101020.51;;;14.34;65.29
79690;BME280;69156;55.932;-3.238;2023-08-06T06:46:44;101021.02;;;14.21;65.62
79690;BME280;69156;55.932;-3.238;2023-08-06T06:49:09;101020.98;;;14.38;65.56
79690;BME280;69156;55.932;-3.238;2023-08-06T06:51:34;101021.32;;;14.46;65.83
79690;BME280;69156;55.932;-3.238;2023-08-06T06:54:01;101024.19;;;14.38;65.78
79690;BME280;69156;55.932;-3.238;2023-08-06T06:56:26;101025.38;;;14.66;65.47
79690;BME280;69156;55.932;-3.238;2023-08-06T06:58:53;101027.33;;;14.59;65.19
79690;BME280;69156;55.932;-3.238;2023-08-06T07:01:17;101027.23;;;14.79;65.28
79690;BME280;69156;55.932;-3.238;2023-08-06T07:03:43;101030.21;;;14.77;65.34
79690;BME280;69156;55.932;-3.238;2023-08-06T07:06:10;101031.28;;;14.60;65.52
79690;BME280;69156;55.932;-3.238;2023-08-06T07:08:34;101031.89;;;14.68;65.38
79690;BME280;69156;55.932;-3.238;2023-08-06T07:11:01;101033.45;;;14.74;65.53
79690;BME280;69156;55.932;-3.238;2023-08-06T07:13:27;101034.39;;;14.91;65.22
79690;BME280;69156;55.932;-3.238;2023-08-06T07:15:52;101031.69;;;14.92;64.96
79690;BME280;69156;55.932;-3.238;2023-08-06T07:18:18;101031.79;;;14.83;65.07
79690;BME280;69156;55.932;-3.238;2023-08-06T07:20:48;101035.35;;;15.06;65.01
79690;BME280;69156;55.932;-3.238;2023-08-06T07:23:09;101035.98;;;15.25;64.08
79690;BME280;69156;55.932;-3.238;2023-08-06T07:25:36;101036.01;;;15.17;63.93
79690;BME280;69156;55.932;-3.238;2023-08-06T07:28:01;101037.14;;;15.22;63.63
79690;BME280;69156;55.932;-3.238;2023-08-06T07:30:27;101037.55;;;15.09;63.85
79690;BME280;69156;55.932;-3.238;2023-08-06T07:32:53;101039.63;;;14.96;64.00
79690;BME280;69156;55.932;-3.238;2023-08-06T07:35:20;101038.24;;;14.93;63.93
79690;BME280;69156;55.932;-3.238;2023-08-06T07:37:46;101039.26;;;15.11;63.97
79690;BME280;69156;55.932;-3.238;2023-08-06T07:40:12;101037.95;;;15.19;63.70
79690;BME280;69156;55.932;-3.238;2023-08-06T07:42:35;101037.53;;;15.20;63.28
79690;BME280;69156;55.932;-3.238;2023-08-06T07:45:04;101036.62;;;15.63;62.88
79690;BME280;69156;55.932;-3.238;2023-08-06T07:47:28;101035.85;;;15.57;62.00
79690;BME280;69156;55.932;-3.238;2023-08-06T07:49:52;101036.59;;;15.47;62.28
79690;BME280;69156;55.932;-3.238;2023-08-06T07:52:17;101036.12;;;15.76;61.86
79690;BME280;69156;55.932;-3.238;2023-08-06T07:54:42;101038.86;;;15.74;61.47
79690;BME280;69156;55.932;-3.238;2023-08-06T07:57:08;101040.70;;;15.76;61.02
79690;BME280;69156;55.932;-3.238;2023-08-06T07:59:35;101040.72;;;15.73;61.00
79690;BME280;69156;55.932;-3.238;2023-08-06T08:02:01;101041.54;;;15.71;61.17
79690;BME280;69156;55.932;-3.238;2023-08-06T08:04:26;101045.70;;;15.56;61.56
79690;BME280;69156;55.932;-3.238;2023-08-06T08:06:54;101045.33;;;15.63;61.48
79690;BME280;69156;55.932;-3.238;2023-08-06T08:09:18;101041.51;;;15.58;60.55
79690;BME280;69156;55.932;-3.238;2023-08-06T08:11:44;101043.61;;;15.82;60.70
79690;BME280;69156;55.932;-3.238;2023-08-06T08:14:10;101045.84;;;15.83;60.06
79690;BME280;69156;55.932;-3.238;2023-08-06T08:16:35;101046.57;;;15.85;59.71
79690;BME280;69156;55.932;-3.238;2023-08-06T08:19:00;101045.42;;;15.81;59.83
79690;BME280;69156;55.932;-3.238;2023-08-06T08:21:26;101048.68;;;15.60;60.12
79690;BME280;69156;55.932;-3.238;2023-08-06T08:23:52;101046.15;;;15.74;60.48
79690;BME280;69156;55.932;-3.238;2023-08-06T08:26:17;101047.22;;;15.98;59.92
79690;BME280;69156;55.932;-3.238;2023-08-06T08:28:42;101048.56;;;15.98;60.24
79690;BME280;69156;55.932;-3.238;2023-08-06T08:31:08;101045.20;;;15.98;60.60
79690;BME280;69156;55.932;-3.238;2023-08-06T08:33:32;101048.39;;;16.18;60.07
79690;BME280;69156;55.932;-3.238;2023-08-06T08:35:57;101047.16;;;16.30;59.10
79690;BME280;69156;55.932;-3.238;2023-08-06T08:38:23;101044.68;;;16.08;59.41
79690;BME280;69156;55.932;-3.238;2023-08-06T08:40:52;101043.72;;;16.21;59.24
79690;BME280;69156;55.932;-3.238;2023-08-06T08:43:15;101044.59;;;16.16;58.88
79690;BME280;69156;55.932;-3.238;2023-08-06T08:45:40;101044.04;;;16.45;58.80
79690;BME280;69156;55.932;-3.238;2023-08-06T08:48:05;101047.90;;;16.40;58.62
79690;BME280;69156;55.932;-3.238;2023-08-06T08:50:30;101048.75;;;16.29;58.85
79690;BME280;69156;55.932;-3.238;2023-08-06T08:52:55;101050.02;;;16.35;58.84
79690;BME280;69156;55.932;-3.238;2023-08-06T08:55:21;101050.04;;;16.48;59.16
79690;BME280;69156;55.932;-3.238;2023-08-06T08:57:46;101055.36;;;16.44;59.00
79690;BME280;69156;55.932;-3.238;2023-08-06T09:00:13;101055.30;;;16.79;58.62
79690;BME280;69156;55.932;-3.238;2023-08-06T09:02:38;101060.34;;;16.46;58.50
79690;BME280;69156;55.932;-3.238;2023-08-06T09:05:05;101057.58;;;16.66;57.63
79690;BME280;69156;55.932;-3.238;2023-08-06T09:07:33;101057.12;;;16.50;57.53
79690;BME280;69156;55.932;-3.238;2023-08-06T09:09:56;101055.51;;;16.87;57.67
79690;BME280;69156;55.932;-3.238;2023-08-06T09:12:21;101054.89;;;16.84;57.97
79690;BME280;69156;55.932;-3.238;2023-08-06T09:14:46;101053.19;;;16.81;57.78
79690;BME280;69156;55.932;-3.238;2023-08-06T09:17:12;101054.68;;;16.80;56.65
79690;BME280;69156;55.932;-3.238;2023-08-06T09:19:37;101054.78;;;16.82;56.69
79690;BME280;69156;55.932;-3.238;2023-08-06T09:22:04;101053.45;;;16.90;56.20
79690;BME280;69156;55.932;-3.238;2023-08-06T09:24:29;101051.39;;;16.93;55.96
79690;BME280;69156;55.932;-3.238;2023-08-06T09:26:55;101051.30;;;16.94;54.16
79690;BME280;69156;55.932;-3.238;2023-08-06T09:29:20;101052.29;;;16.69;53.27
79690;BME280;69156;55.932;-3.238;2023-08-06T09:31:46;101051.21;;;16.59;54.12
79690;BME280;69156;55.932;-3.238;2023-08-06T09:34:11;101053.71;;;16.74;55.80
79690;BME280;69156;55.932;-3.238;2023-08-06T09:36:40;101052.41;;;16.82;56.48
79690;BME280;69156;55.932;-3.238;2023-08-06T09:39:01;101050.75;;;17.20;55.82
79690;BME280;69156;55.932;-3.238;2023-08-06T09:41:27;101050.83;;;17.21;54.91
79690;BME280;69156;55.932;-3.238;2023-08-06T09:43:53;101051.69;;;17.55;52.70
79690;BME280;69156;55.932;-3.238;2023-08-06T09:46:18;101050.80;;;17.39;51.76
79690;BME280;69156;55.932;-3.238;2023-08-06T09:48:45;101052.74;;;17.09;52.33
79690;BME280;69156;55.932;-3.238;2023-08-06T09:51:09;101051.25;;;17.20;52.86
79690;BME280;69156;55.932;-3.238;2023-08-06T09:53:34;101054.16;;;17.64;51.86
79690;BME280;69156;55.932;-3.238;2023-08-06T09:56:00;101059.19;;;17.84;50.80
79690;BME280;69156;55.932;-3.238;2023-08-06T09:58:25;101060.53;;;17.90;50.11
79690;BME280;69156;55.932;-3.238;2023-08-06T10:00:52;101062.52;;;17.67;49.86
79690;BME280;69156;55.932;-3.238;2023-08-06T10:03:17;101062.82;;;17.62;49.78
79690;BME280;69156;55.932;-3.238;2023-08-06T10:05:43;101063.28;;;17.76;49.50
79690;BME280;69156;55.932;-3.238;2023-08-06T10:08:08;101062.13;;;17.73;49.54
79690;BME280;69156;55.932;-3.238;2023-08-06T10:10:35;101061.98;;;17.97;48.86
79690;BME280;69156;55.932;-3.238;2023-08-06T10:12:59;101062.23;;;18.10;48.70
79690;BME280;69156;55.932;-3.238;2023-08-06T10:15:26;101057.76;;;18.08;48.46
79690;BME280;69156;55.932;-3.238;2023-08-06T10:17:53;101062.20;;;18.06;48.21
79690;BME280;69156;55.932;-3.238;2023-08-06T10:20:14;101062.63;;;17.95;49.08
79690;BME280;69156;55.932;-3.238;2023-08-06T10:22:42;101061.21;;;17.97;48.06
79690;BME280;69156;55.932;-3.238;2023-08-06T10:25:06;101059.87;;;18.18;47.69
79690;BME280;69156;55.932;-3.238;2023-08-06T10:27:33;101062.57;;;18.22;47.00
79690;BME280;69156;55.932;-3.238;2023-08-06T10:30:21;101063.36;;;18.20;47.43
79690;BME280;69156;55.932;-3.238;2023-08-06T10:32:46;101062.70;;;18.07;47.03
79690;BME280;69156;55.932;-3.238;2023-08-06T10:34:57;101060.50;;;18.22;47.11
79690;BME280;69156;55.932;-3.238;2023-08-06T10:37:15;101061.18;;;18.28;46.82
79690;BME280;69156;55.932;-3.238;2023-08-06T10:39:48;101059.94;;;18.10;47.55
79690;BME280;69156;55.932;-3.238;2023-08-06T10:42:05;101059.71;;;18.21;47.57
79690;BME280;69156;55.932;-3.238;2023-08-06T10:44:30;101059.65;;;18.13;48.86
79690;BME280;69156;55.932;-3.238;2023-08-06T10:46:56;101059.53;;;18.23;48.72
79690;BME280;69156;55.932;-3.238;2023-08-06T10:49:21;101061.12;;;18.14;48.60
79690;BME280;69156;55.932;-3.238;2023-08-06T10:51:46;101057.86;;;18.05;48.20
79690;BME280;69156;55.932;-3.238;2023-08-06T10:54:13;101057.24;;;17.98;47.58
79690;BME280;69156;55.932;-3.238;2023-08-06T10:56:40;101062.91;;;18.16;49.30
79690;BME280;69156;55.932;-3.238;2023-08-06T10:59:03;101065.31;;;17.92;48.29
79690;BME280;69156;55.932;-3.238;2023-08-06T11:01:29;101068.65;;;17.83;49.61
79690;BME280;69156;55.932;-3.238;2023-08-06T11:03:54;101067.39;;;18.15;47.76
79690;BME280;69156;55.932;-3.238;2023-08-06T11:06:20;101064.82;;;18.13;47.80
79690;BME280;69156;55.932;-3.238;2023-08-06T11:08:49;101069.20;;;18.09;48.02
79690;BME280;69156;55.932;-3.238;2023-08-06T11:11:10;101065.86;;;17.99;49.09
79690;BME280;69156;55.932;-3.238;2023-08-06T11:13:35;101058.97;;;18.10;47.83
79690;BME280;69156;55.932;-3.238;2023-08-06T11:16:01;101062.84;;;17.99;47.63
79690;BME280;69156;55.932;-3.238;2023-08-06T11:18:26;101063.70;;;17.62;48.88
79690;BME280;69156;55.932;-3.238;2023-08-06T11:20:53;101061.59;;;17.90;48.33
79690;BME280;69156;55.932;-3.238;2023-08-06T11:23:18;101058.20;;;18.35;47.51
79690;BME280;69156;55.932;-3.238;2023-08-06T11:25:44;101056.45;;;18.57;46.40
79690;BME280;69156;55.932;-3.238;2023-08-06T11:28:09;101054.80;;;18.58;46.63
79690;BME280;69156;55.932;-3.238;2023-08-06T11:30:34;101059.93;;;18.67;45.70
79690;BME280;69156;55.932;-3.238;2023-08-06T11:33:00;101064.33;;;18.64;45.14
79690;BME280;69156;55.932;-3.238;2023-08-06T11:35:26;101069.64;;;18.42;45.35
79690;BME280;69156;55.932;-3.238;2023-08-06T11:37:51;101065.70;;;18.03;46.48
79690;BME280;69156;55.932;-3.238;2023-08-06T11:40:17;101062.55;;;18.13;47.13
79690;BME280;69156;55.932;-3.238;2023-08-06T11:42:42;101060.23;;;18.14;47.63
79690;BME280;69156;55.932;-3.238;2023-08-06T11:45:08;101061.76;;;18.37;46.29
79690;BME280;69156;55.932;-3.238;2023-08-06T11:47:33;101061.73;;;18.52;45.39
79690;BME280;69156;55.932;-3.238;2023-08-06T11:49:58;101061.68;;;18.55;45.66
79690;BME280;69156;55.932;-3.238;2023-08-06T11:52:24;101060.39;;;18.18;47.08
79690;BME280;69156;55.932;-3.238;2023-08-06T11:55:01;101061.40;;;18.33;47.36
79690;BME280;69156;55.932;-3.238;2023-08-06T11:57:15;101063.59;;;18.37;47.11
79690;BME280;69156;55.932;-3.238;2023-08-06T11:59:40;101064.72;;;18.30;46.68
79690;BME280;69156;55.932;-3.238;2023-08-06T12:02:08;101059.90;;;18.25;46.75
79690;BME280;69156;55.932;-3.238;2023-08-06T12:04:30;101059.34;;;18.09;46.78
79690;BME280;69156;55.932;-3.238;2023-08-06T12:06:55;101059.62;;;18.31;46.87
79690;BME280;69156;55.932;-3.238;2023-08-06T12:09:20;101058.90;;;18.10;46.60
79690;BME280;69156;55.932;-3.238;2023-08-06T12:11:46;101059.46;;;18.06;46.84
79690;BME280;69156;55.932;-3.238;2023-08-06T12:14:11;101064.28;;;18.06;46.39
79690;BME280;69156;55.932;-3.238;2023-08-06T12:16:36;101060.95;;;18.05;46.92
79690;BME280;69156;55.932;-3.238;2023-08-06T12:19:01;101066.16;;;18.06;46.41
79690;BME280;69156;55.932;-3.238;2023-08-06T12:21:27;101063.94;;;18.40;46.06
79690;BME280;69156;55.932;-3.238;2023-08-06T12:23:53;101065.46;;;18.46;45.03
79690;BME280;69156;55.932;-3.238;2023-08-06T12:26:18;101064.14;;;18.38;44.21
79690;BME280;69156;55.932;-3.238;2023-08-06T12:28:44;101064.04;;;18.62;44.17
79690;BME280;69156;55.932;-3.238;2023-08-06T12:31:09;101061.40;;;18.55;44.51